sensor_id;sensor_type;location;lat;lon;timestamp;temperature;humidity
16064;DHT22;8136;53.172;8.256;2023-04-07T00:01:50;10.30;99.90
16064;DHT22;8136;53.172;8.256;2023-04-07T00:04:16;10.30;99.90
16064;DHT22;8136;53.172;8.256;2023-04-07T00:06:43;10.20;99.90
16064;DHT22;8136;53.172;8.256;2023-04-07T00:09:10;10.20;99.90
16064;DHT22;8136;53.172;8.256;2023-04-07T00:11:38;10.10;99.90
16064;DHT22;8136;53.172;8.256;2023-04-07T00:14:05;10.00;99.90
16064;DHT22;8136;53.172;8.256;2023-04-07T00:16:32;10.00;99.90
16064;DHT22;8136;53.172;8.256;2023-04-07T00:18:58;9.90;99.90
16064;DHT22;8136;53.172;8.256;2023-04-07T00:21:25;9.70;99.90
16064;DHT22;8136;53.172;8.256;2023-04-07T00:23:52;9.70;99.90
16064;DHT22;8136;53.172;8.256;2023-04-07T00:26:19;9.60;99.90
16064;DHT22;8136;53.172;8.256;2023-04-07T00:28:47;9.60;99.90
16064;DHT22;8136;53.172;8.256;2023-04-07T00:31:14;9.50;99.90
16064;DHT22;8136;53.172;8.256;2023-04-07T00:33:41;9.50;99.90
16064;DHT22;8136;53.172;8.256;2023-04-07T00:36:07;9.40;99.90
16064;DHT22;8136;53.172;8.256;2023-04-07T00:38:34;9.40;99.90
16064;DHT22;8136;53.172;8.256;2023-04-07T00:41:01;9.30;99.90
16064;DHT22;8136;53.172;8.256;2023-04-07T00:43:28;9.10;99.90
16064;DHT22;8136;53.172;8.256;2023-04-07T00:45:56;9.10;99.90
16064;DHT22;8136;53.172;8.256;2023-04-07T00:48:23;9.10;99.90
16064;DHT22;8136;53.172;8.256;2023-04-07T00:50:50;9.00;99.90
16064;DHT22;8136;53.172;8.256;2023-04-07T00:53:17;9.00;99.90
16064;DHT22;8136;53.172;8.256;2023-04-07T00:55:45;8.90;99.90
16064;DHT22;8136;53.172;8.256;2023-04-07T00:58:11;8.90;99.90
16064;DHT22;8136;53.172;8.256;2023-04-07T01:00:44;8.90;99.90
16064;DHT22;8136;53.172;8.256;2023-04-07T01:03:19;8.90;99.90
16064;DHT22;8136;53.172;8.256;2023-04-07T01:05:52;8.80;99.90
16064;DHT22;8136;53.172;8.256;2023-04-07T01:08:23;8.70;99.90
16064;DHT22;8136;53.172;8.256;2023-04-07T01:10:52;8.70;99.90
16064;DHT22;8136;53.172;8.256;2023-04-07T01:13:23;8.60;99.90
16064;DHT22;8136;53.172;8.256;2023-04-07T01:15:51;8.60;99.90
16064;DHT22;8136;53.172;8.256;2023-04-07T01:18:26;8.60;99.90
16064;DHT22;8136;53.172;8.256;2023-04-07T01:20:59;8.60;99.90
16064;DHT22;8136;53.172;8.256;2023-04-07T01:23:39;8.60;99.90
16064;DHT22;8136;53.172;8.256;2023-04-07T01:26:27;8.60;99.90
16064;DHT22;8136;53.172;8.256;2023-04-07T01:29:21;8.60;99.90
16064;DHT22;8136;53.172;8.256;2023-04-07T01:31:49;8.60;99.90
16064;DHT22;8136;53.172;8.256;2023-04-07T01:34:17;8.50;99.90
16064;DHT22;8136;53.172;8.256;2023-04-07T01:36:44;8.60;99.90
16064;DHT22;8136;53.172;8.256;2023-04-07T01:39:12;8.50;99.90
16064;DHT22;8136;53.172;8.256;2023-04-07T01:41:40;8.40;99.90
16064;DHT22;8136;53.172;8.256;2023-04-07T01:44:08;8.40;99.90
16064;DHT22;8136;53.172;8.256;2023-04-07T01:46:37;8.40;99.90
16064;DHT22;8136;53.172;8.256;2023-04-07T01:49:04;8.40;99.90
16064;DHT22;8136;53.172;8.256;2023-04-07T01:51:32;8.40;99.90
16064;DHT22;8136;53.172;8.256;2023-04-07T01:54:00;8.40;99.90
16064;DHT22;8136;53.172;8.256;2023-04-07T01:56:27;8.40;99.90
16064;DHT22;8136;53.172;8.256;2023-04-07T01:58:54;8.40;99.90
16064;DHT22;8136;53.172;8.256;2023-04-07T02:01:21;8.30;99.90
16064;DHT22;8136;53.172;8.256;2023-04-07T02:03:53;8.40;99.90
16064;DHT22;8136;53.172;8.256;2023-04-07T02:06:23;8.30;99.90
16064;DHT22;8136;53.172;8.256;2023-04-07T02:08:58;8.30;99.90
16064;DHT22;8136;53.172;8.256;2023-04-07T02:11:25;8.30;99.90
16064;DHT22;8136;53.172;8.256;2023-04-07T02:13:53;8.30;99.90
16064;DHT22;8136;53.172;8.256;2023-04-07T02:16:21;8.30;99.90
16064;DHT22;8136;53.172;8.256;2023-04-07T02:18:49;8.30;99.90
16064;DHT22;8136;53.172;8.256;2023-04-07T02:21:18;8.20;99.90
16064;DHT22;8136;53.172;8.256;2023-04-07T02:23:45;8.20;99.90
16064;DHT22;8136;53.172;8.256;2023-04-07T02:26:12;8.10;99.90
16064;DHT22;8136;53.172;8.256;2023-04-07T02:28:39;8.20;99.90
16064;DHT22;8136;53.172;8.256;2023-04-07T02:31:06;8.20;99.90
16064;DHT22;8136;53.172;8.256;2023-04-07T02:33:33;8.10;99.90
16064;DHT22;8136;53.172;8.256;2023-04-07T02:36:01;8.20;99.90
16064;DHT22;8136;53.172;8.256;2023-04-07T02:38:28;8.10;99.90
16064;DHT22;8136;53.172;8.256;2023-04-07T02:40:55;8.10;99.90
16064;DHT22;8136;53.172;8.256;2023-04-07T02:43:23;8.10;99.90
16064;DHT22;8136;53.172;8.256;2023-04-07T02:45:50;8.10;99.90
16064;DHT22;8136;53.172;8.256;2023-04-07T02:48:17;8.10;99.90
16064;DHT22;8136;53.172;8.256;2023-04-07T02:50:43;8.10;99.90
16064;DHT22;8136;53.172;8.256;2023-04-07T02:53:12;8.00;99.90
16064;DHT22;8136;53.172;8.256;2023-04-07T02:55:38;8.00;99.90
16064;DHT22;8136;53.172;8.256;2023-04-07T02:58:05;8.00;99.90
16064;DHT22;8136;53.172;8.256;2023-04-07T03:00:33;7.90;99.90
16064;DHT22;8136;53.172;8.256;2023-04-07T03:03:00;7.80;99.90
16064;DHT22;8136;53.172;8.256;2023-04-07T03:05:26;7.90;99.90
16064;DHT22;8136;53.172;8.256;2023-04-07T03:07:53;7.80;99.90
16064;DHT22;8136;53.172;8.256;2023-04-07T03:10:21;7.80;99.90
16064;DHT22;8136;53.172;8.256;2023-04-07T03:12:48;7.90;99.90
16064;DHT22;8136;53.172;8.256;2023-04-07T03:15:15;7.90;99.90
16064;DHT22;8136;53.172;8.256;2023-04-07T03:17:42;7.90;99.90
16064;DHT22;8136;53.172;8.256;2023-04-07T03:20:09;7.90;99.90
16064;DHT22;8136;53.172;8.256;2023-04-07T03:22:36;7.90;99.90
16064;DHT22;8136;53.172;8.256;2023-04-07T03:25:03;7.90;99.90
16064;DHT22;8136;53.172;8.256;2023-04-07T03:27:31;7.90;99.90
16064;DHT22;8136;53.172;8.256;2023-04-07T03:29:58;7.90;99.90
16064;DHT22;8136;53.172;8.256;2023-04-07T03:32:25;8.00;99.90
16064;DHT22;8136;53.172;8.256;2023-04-07T03:34:52;7.90;99.90
16064;DHT22;8136;53.172;8.256;2023-04-07T03:37:18;7.90;99.90
16064;DHT22;8136;53.172;8.256;2023-04-07T03:39:45;7.90;99.90
16064;DHT22;8136;53.172;8.256;2023-04-07T03:42:12;7.80;99.90
16064;DHT22;8136;53.172;8.256;2023-04-07T03:44:40;7.80;99.90
16064;DHT22;8136;53.172;8.256;2023-04-07T03:47:07;7.80;99.90
16064;DHT22;8136;53.172;8.256;2023-04-07T03:49:34;7.80;99.90
16064;DHT22;8136;53.172;8.256;2023-04-07T03:52:03;7.80;99.90
16064;DHT22;8136;53.172;8.256;2023-04-07T03:54:29;7.80;99.90
16064;DHT22;8136;53.172;8.256;2023-04-07T03:56:56;7.80;99.90
16064;DHT22;8136;53.172;8.256;2023-04-07T03:59:23;7.60;99.90
16064;DHT22;8136;53.172;8.256;2023-04-07T04:01:51;7.60;99.90
16064;DHT22;8136;53.172;8.256;2023-04-07T04:04:18;7.50;99.90
16064;DHT22;8136;53.172;8.256;2023-04-07T04:06:45;7.50;99.90
16064;DHT22;8136;53.172;8.256;2023-04-07T04:09:12;7.40;99.90
16064;DHT22;8136;53.172;8.256;2023-04-07T04:11:39;7.40;99.90
16064;DHT22;8136;53.172;8.256;2023-04-07T04:14:06;7.40;99.90
16064;DHT22;8136;53.172;8.256;2023-04-07T04:16:32;7.40;99.90
16064;DHT22;8136;53.172;8.256;2023-04-07T04:19:02;7.40;99.90
16064;DHT22;8136;53.172;8.256;2023-04-07T04:21:29;7.40;99.90
16064;DHT22;8136;53.172;8.256;2023-04-07T04:23:55;7.40;99.90
16064;DHT22;8136;53.172;8.256;2023-04-07T04:26:22;7.40;99.90
16064;DHT22;8136;53.172;8.256;2023-04-07T04:28:50;7.40;99.90
16064;DHT22;8136;53.172;8.256;2023-04-07T04:31:17;7.20;99.90
16064;DHT22;8136;53.172;8.256;2023-04-07T04:33:44;7.20;99.90
16064;DHT22;8136;53.172;8.256;2023-04-07T04:36:12;7.10;99.90
16064;DHT22;8136;53.172;8.256;2023-04-07T04:38:39;7.00;99.90
16064;DHT22;8136;53.172;8.256;2023-04-07T04:41:05;7.10;99.90
16064;DHT22;8136;53.172;8.256;2023-04-07T04:43:32;7.00;99.90
16064;DHT22;8136;53.172;8.256;2023-04-07T04:45:59;7.00;99.90
16064;DHT22;8136;53.172;8.256;2023-04-07T04:48:26;6.90;99.90
16064;DHT22;8136;53.172;8.256;2023-04-07T04:50:52;6.80;99.90
16064;DHT22;8136;53.172;8.256;2023-04-07T04:53:20;6.80;99.90
16064;DHT22;8136;53.172;8.256;2023-04-07T04:55:47;6.90;99.90
16064;DHT22;8136;53.172;8.256;2023-04-07T04:58:16;6.80;99.90
16064;DHT22;8136;53.172;8.256;2023-04-07T05:00:43;6.80;99.90
16064;DHT22;8136;53.172;8.256;2023-04-07T05:03:10;6.70;99.90
16064;DHT22;8136;53.172;8.256;2023-04-07T05:05:37;6.70;99.90
16064;DHT22;8136;53.172;8.256;2023-04-07T05:08:04;6.80;99.90
16064;DHT22;8136;53.172;8.256;2023-04-07T05:10:37;6.80;99.90
16064;DHT22;8136;53.172;8.256;2023-04-07T05:13:04;6.80;99.90
16064;DHT22;8136;53.172;8.256;2023-04-07T05:15:31;6.70;99.90
16064;DHT22;8136;53.172;8.256;2023-04-07T05:17:57;6.70;99.90
16064;DHT22;8136;53.172;8.256;2023-04-07T05:20:24;6.70;99.90
16064;DHT22;8136;53.172;8.256;2023-04-07T05:22:51;6.70;99.90
16064;DHT22;8136;53.172;8.256;2023-04-07T05:25:18;6.70;99.90
16064;DHT22;8136;53.172;8.256;2023-04-07T05:27:46;6.70;99.90
16064;DHT22;8136;53.172;8.256;2023-04-07T05:30:13;6.70;99.90
16064;DHT22;8136;53.172;8.256;2023-04-07T05:32:40;6.60;99.90
16064;DHT22;8136;53.172;8.256;2023-04-07T05:35:08;6.60;99.90
16064;DHT22;8136;53.172;8.256;2023-04-07T05:37:35;6.60;99.90
16064;DHT22;8136;53.172;8.256;2023-04-07T05:40:01;6.50;99.90
16064;DHT22;8136;53.172;8.256;2023-04-07T05:42:28;6.50;99.90
16064;DHT22;8136;53.172;8.256;2023-04-07T05:44:56;6.50;99.90
16064;DHT22;8136;53.172;8.256;2023-04-07T05:47:23;6.50;99.90
16064;DHT22;8136;53.172;8.256;2023-04-07T05:49:50;6.50;99.90
16064;DHT22;8136;53.172;8.256;2023-04-07T05:52:17;6.50;99.90
16064;DHT22;8136;53.172;8.256;2023-04-07T05:54:43;6.50;99.90
16064;DHT22;8136;53.172;8.256;2023-04-07T05:57:10;6.50;99.90
16064;DHT22;8136;53.172;8.256;2023-04-07T05:59:37;6.50;99.90
16064;DHT22;8136;53.172;8.256;2023-04-07T06:02:05;6.60;99.90
16064;DHT22;8136;53.172;8.256;2023-04-07T06:04:32;6.60;99.90
16064;DHT22;8136;53.172;8.256;2023-04-07T06:07:00;6.50;99.90
16064;DHT22;8136;53.172;8.256;2023-04-07T06:09:26;6.40;99.90
16064;DHT22;8136;53.172;8.256;2023-04-07T06:11:53;6.50;99.90
16064;DHT22;8136;53.172;8.256;2023-04-07T06:14:21;6.40;99.90
16064;DHT22;8136;53.172;8.256;2023-04-07T06:16:48;6.40;99.90
16064;DHT22;8136;53.172;8.256;2023-04-07T06:19:16;6.50;99.90
16064;DHT22;8136;53.172;8.256;2023-04-07T06:21:43;6.50;99.90
16064;DHT22;8136;53.172;8.256;2023-04-07T06:24:10;6.50;99.90
16064;DHT22;8136;53.172;8.256;2023-04-07T06:26:37;6.50;99.90
16064;DHT22;8136;53.172;8.256;2023-04-07T06:29:05;6.50;99.90
16064;DHT22;8136;53.172;8.256;2023-04-07T06:31:31;6.60;99.90
16064;DHT22;8136;53.172;8.256;2023-04-07T06:33:58;6.70;99.90
16064;DHT22;8136;53.172;8.256;2023-04-07T06:36:27;6.70;99.90
16064;DHT22;8136;53.172;8.256;2023-04-07T06:38:54;6.80;99.90
16064;DHT22;8136;53.172;8.256;2023-04-07T06:41:22;6.90;99.90
16064;DHT22;8136;53.172;8.256;2023-04-07T06:43:49;6.90;99.90
16064;DHT22;8136;53.172;8.256;2023-04-07T06:46:16;6.90;99.90
16064;DHT22;8136;53.172;8.256;2023-04-07T06:48:43;6.90;99.90
16064;DHT22;8136;53.172;8.256;2023-04-07T06:51:10;6.80;99.90
16064;DHT22;8136;53.172;8.256;2023-04-07T06:53:39;6.90;99.90
16064;DHT22;8136;53.172;8.256;2023-04-07T06:56:07;7.00;99.90
16064;DHT22;8136;53.172;8.256;2023-04-07T06:58:35;7.10;99.90
16064;DHT22;8136;53.172;8.256;2023-04-07T07:01:02;7.30;99.90
16064;DHT22;8136;53.172;8.256;2023-04-07T07:03:30;7.30;99.90
16064;DHT22;8136;53.172;8.256;2023-04-07T07:05:58;7.40;99.90
16064;DHT22;8136;53.172;8.256;2023-04-07T07:08:25;7.60;99.90
16064;DHT22;8136;53.172;8.256;2023-04-07T07:10:53;7.60;99.90
16064;DHT22;8136;53.172;8.256;2023-04-07T07:13:22;7.70;99.90
16064;DHT22;8136;53.172;8.256;2023-04-07T07:15:49;7.90;99.90
16064;DHT22;8136;53.172;8.256;2023-04-07T07:18:16;8.00;99.90
16064;DHT22;8136;53.172;8.256;2023-04-07T07:20:43;8.00;99.90
16064;DHT22;8136;53.172;8.256;2023-04-07T07:23:10;8.00;99.90
16064;DHT22;8136;53.172;8.256;2023-04-07T07:25:37;8.00;99.90
16064;DHT22;8136;53.172;8.256;2023-04-07T07:28:05;8.10;99.90
16064;DHT22;8136;53.172;8.256;2023-04-07T07:30:32;8.20;99.90
16064;DHT22;8136;53.172;8.256;2023-04-07T07:32:58;8.30;99.90
16064;DHT22;8136;53.172;8.256;2023-04-07T07:35:25;8.30;99.90
16064;DHT22;8136;53.172;8.256;2023-04-07T07:37:52;8.40;99.90
16064;DHT22;8136;53.172;8.256;2023-04-07T07:40:19;8.50;99.90
16064;DHT22;8136;53.172;8.256;2023-04-07T07:42:46;8.70;99.90
16064;DHT22;8136;53.172;8.256;2023-04-07T07:45:14;8.80;99.90
16064;DHT22;8136;53.172;8.256;2023-04-07T07:47:42;8.90;99.90
16064;DHT22;8136;53.172;8.256;2023-04-07T07:50:09;9.00;99.90
16064;DHT22;8136;53.172;8.256;2023-04-07T07:52:36;9.00;99.90
16064;DHT22;8136;53.172;8.256;2023-04-07T07:55:04;9.00;99.90
16064;DHT22;8136;53.172;8.256;2023-04-07T07:57:31;9.10;99.90
16064;DHT22;8136;53.172;8.256;2023-04-07T08:00:03;9.20;99.90
16064;DHT22;8136;53.172;8.256;2023-04-07T08:02:34;9.30;99.90
16064;DHT22;8136;53.172;8.256;2023-04-07T08:05:05;9.40;99.90
16064;DHT22;8136;53.172;8.256;2023-04-07T08:07:52;9.60;99.90
16064;DHT22;8136;53.172;8.256;2023-04-07T08:10:19;9.70;99.90
16064;DHT22;8136;53.172;8.256;2023-04-07T08:12:47;9.70;99.90
16064;DHT22;8136;53.172;8.256;2023-04-07T08:15:14;9.90;99.90
16064;DHT22;8136;53.172;8.256;2023-04-07T08:17:52;9.90;99.90
16064;DHT22;8136;53.172;8.256;2023-04-07T08:20:19;10.00;99.90
16064;DHT22;8136;53.172;8.256;2023-04-07T08:22:46;10.10;99.90
16064;DHT22;8136;53.172;8.256;2023-04-07T08:25:13;10.20;99.90
16064;DHT22;8136;53.172;8.256;2023-04-07T08:27:40;10.30;99.90
16064;DHT22;8136;53.172;8.256;2023-04-07T08:30:08;10.30;99.90
16064;DHT22;8136;53.172;8.256;2023-04-07T08:32:36;10.50;99.90
16064;DHT22;8136;53.172;8.256;2023-04-07T08:35:05;10.60;99.90
16064;DHT22;8136;53.172;8.256;2023-04-07T08:37:33;10.80;99.90
16064;DHT22;8136;53.172;8.256;2023-04-07T08:40:00;10.90;99.90
16064;DHT22;8136;53.172;8.256;2023-04-07T08:42:29;10.90;99.90
16064;DHT22;8136;53.172;8.256;2023-04-07T08:44:57;11.00;99.90
16064;DHT22;8136;53.172;8.256;2023-04-07T08:47:30;11.10;99.90
16064;DHT22;8136;53.172;8.256;2023-04-07T08:50:01;11.10;99.90
16064;DHT22;8136;53.172;8.256;2023-04-07T08:52:33;11.20;99.90
16064;DHT22;8136;53.172;8.256;2023-04-07T08:55:09;11.20;99.90
16064;DHT22;8136;53.172;8.256;2023-04-07T08:57:37;11.30;99.90
16064;DHT22;8136;53.172;8.256;2023-04-07T09:00:07;11.40;99.90
16064;DHT22;8136;53.172;8.256;2023-04-07T09:02:38;11.50;99.90
16064;DHT22;8136;53.172;8.256;2023-04-07T09:05:08;11.60;99.90
16064;DHT22;8136;53.172;8.256;2023-04-07T09:07:38;11.50;99.90
16064;DHT22;8136;53.172;8.256;2023-04-07T09:10:08;11.50;99.90
16064;DHT22;8136;53.172;8.256;2023-04-07T09:12:35;11.60;99.90
16064;DHT22;8136;53.172;8.256;2023-04-07T09:15:14;11.70;99.90
16064;DHT22;8136;53.172;8.256;2023-04-07T09:18:00;11.80;99.90
16064;DHT22;8136;53.172;8.256;2023-04-07T09:20:57;11.90;99.90
16064;DHT22;8136;53.172;8.256;2023-04-07T09:26:51;12.10;98.80
16064;DHT22;8136;53.172;8.256;2023-04-07T11:30:36;15.70;89.00
16064;DHT22;8136;53.172;8.256;2023-04-07T11:33:03;15.80;90.20
16064;DHT22;8136;53.172;8.256;2023-04-07T11:35:30;15.90;90.50
16064;DHT22;8136;53.172;8.256;2023-04-07T11:37:58;16.00;89.50
16064;DHT22;8136;53.172;8.256;2023-04-07T11:50:41;16.30;88.90
16064;DHT22;8136;53.172;8.256;2023-04-07T11:53:08;16.30;86.90
16064;DHT22;8136;53.172;8.256;2023-04-07T11:55:35;16.30;88.30
16064;DHT22;8136;53.172;8.256;2023-04-07T11:58:07;16.40;90.20
16064;DHT22;8136;53.172;8.256;2023-04-07T12:00:35;16.60;91.60
16064;DHT22;8136;53.172;8.256;2023-04-07T12:03:09;16.70;90.80
16064;DHT22;8136;53.172;8.256;2023-04-07T12:05:43;16.80;90.90
16064;DHT22;8136;53.172;8.256;2023-04-07T12:08:10;16.80;90.30
16064;DHT22;8136;53.172;8.256;2023-04-07T12:10:37;16.90;87.80
16064;DHT22;8136;53.172;8.256;2023-04-07T12:13:08;16.70;85.50
16064;DHT22;8136;53.172;8.256;2023-04-07T12:15:35;16.90;89.80
16064;DHT22;8136;53.172;8.256;2023-04-07T12:18:02;17.00;86.20
16064;DHT22;8136;53.172;8.256;2023-04-07T12:20:29;17.10;86.10
16064;DHT22;8136;53.172;8.256;2023-04-07T12:22:58;17.30;87.20
16064;DHT22;8136;53.172;8.256;2023-04-07T12:25:25;17.50;89.90
16064;DHT22;8136;53.172;8.256;2023-04-07T12:27:52;17.60;88.50
16064;DHT22;8136;53.172;8.256;2023-04-07T12:30:19;17.70;88.70
16064;DHT22;8136;53.172;8.256;2023-04-07T12:32:47;17.90;89.00
16064;DHT22;8136;53.172;8.256;2023-04-07T12:35:13;18.10;88.80
16064;DHT22;8136;53.172;8.256;2023-04-07T12:37:41;18.20;88.60
16064;DHT22;8136;53.172;8.256;2023-04-07T12:40:09;18.40;90.10
16064;DHT22;8136;53.172;8.256;2023-04-07T12:42:36;18.50;84.50
16064;DHT22;8136;53.172;8.256;2023-04-07T12:45:04;18.40;82.00
16064;DHT22;8136;53.172;8.256;2023-04-07T12:47:31;18.30;83.50
16064;DHT22;8136;53.172;8.256;2023-04-07T12:49:58;18.40;86.50
16064;DHT22;8136;53.172;8.256;2023-04-07T12:52:25;18.60;87.70
16064;DHT22;8136;53.172;8.256;2023-04-07T12:54:52;18.70;85.30
16064;DHT22;8136;53.172;8.256;2023-04-07T12:57:20;18.90;87.00
16064;DHT22;8136;53.172;8.256;2023-04-07T12:59:47;19.10;85.80
16064;DHT22;8136;53.172;8.256;2023-04-07T13:02:14;19.00;79.00
16064;DHT22;8136;53.172;8.256;2023-04-07T13:04:42;19.00;82.60
16064;DHT22;8136;53.172;8.256;2023-04-07T13:07:11;19.10;82.70
16064;DHT22;8136;53.172;8.256;2023-04-07T13:09:38;19.10;81.20
16064;DHT22;8136;53.172;8.256;2023-04-07T13:12:05;19.10;82.80
16064;DHT22;8136;53.172;8.256;2023-04-07T13:14:33;19.10;80.60
16064;DHT22;8136;53.172;8.256;2023-04-07T13:17:00;19.10;82.20
16064;DHT22;8136;53.172;8.256;2023-04-07T13:19:28;19.30;84.80
16064;DHT22;8136;53.172;8.256;2023-04-07T13:21:55;19.50;82.60
16064;DHT22;8136;53.172;8.256;2023-04-07T13:24:22;19.60;79.10
16064;DHT22;8136;53.172;8.256;2023-04-07T13:26:49;19.80;79.10
16064;DHT22;8136;53.172;8.256;2023-04-07T13:29:16;20.20;80.50
16064;DHT22;8136;53.172;8.256;2023-04-07T13:31:46;20.70;81.50
16064;DHT22;8136;53.172;8.256;2023-04-07T13:34:13;21.30;76.40
16064;DHT22;8136;53.172;8.256;2023-04-07T13:36:40;22.20;76.80
16064;DHT22;8136;53.172;8.256;2023-04-07T13:39:07;23.00;74.00
16064;DHT22;8136;53.172;8.256;2023-04-07T13:41:34;24.10;74.20
16064;DHT22;8136;53.172;8.256;2023-04-07T13:44:01;25.00;70.10
16064;DHT22;8136;53.172;8.256;2023-04-07T13:46:28;25.80;66.00
16064;DHT22;8136;53.172;8.256;2023-04-07T13:48:56;26.30;63.30
16064;DHT22;8136;53.172;8.256;2023-04-07T13:51:23;26.80;63.60
16064;DHT22;8136;53.172;8.256;2023-04-07T13:53:50;27.40;63.10
16064;DHT22;8136;53.172;8.256;2023-04-07T13:56:17;28.00;63.10
16064;DHT22;8136;53.172;8.256;2023-04-07T13:58:44;28.30;60.00
16064;DHT22;8136;53.172;8.256;2023-04-07T14:01:11;28.80;59.70
16064;DHT22;8136;53.172;8.256;2023-04-07T14:03:37;28.90;56.90
16064;DHT22;8136;53.172;8.256;2023-04-07T14:06:06;29.10;55.50
16064;DHT22;8136;53.172;8.256;2023-04-07T14:08:32;29.40;56.90
16064;DHT22;8136;53.172;8.256;2023-04-07T14:10:59;29.80;56.20
16064;DHT22;8136;53.172;8.256;2023-04-07T14:13:26;29.80;54.00
16064;DHT22;8136;53.172;8.256;2023-04-07T14:15:53;30.10;55.60
16064;DHT22;8136;53.172;8.256;2023-04-07T14:18:20;30.30;54.60
16064;DHT22;8136;53.172;8.256;2023-04-07T14:20:48;30.50;54.10
16064;DHT22;8136;53.172;8.256;2023-04-07T14:23:16;30.60;52.90
16064;DHT22;8136;53.172;8.256;2023-04-07T14:25:43;30.80;51.30
16064;DHT22;8136;53.172;8.256;2023-04-07T14:28:10;30.20;51.60
16064;DHT22;8136;53.172;8.256;2023-04-07T14:30:37;30.30;51.80
16064;DHT22;8136;53.172;8.256;2023-04-07T14:33:04;30.40;50.10
16064;DHT22;8136;53.172;8.256;2023-04-07T14:35:31;30.80;51.80
16064;DHT22;8136;53.172;8.256;2023-04-07T14:37:58;31.30;52.50
16064;DHT22;8136;53.172;8.256;2023-04-07T14:40:26;31.50;50.20
16064;DHT22;8136;53.172;8.256;2023-04-07T14:42:53;31.40;51.50
16064;DHT22;8136;53.172;8.256;2023-04-07T14:45:21;31.70;52.20
16064;DHT22;8136;53.172;8.256;2023-04-07T14:47:48;31.70;51.40
16064;DHT22;8136;53.172;8.256;2023-04-07T14:50:15;31.90;50.50
16064;DHT22;8136;53.172;8.256;2023-04-07T14:52:41;32.10;51.10
16064;DHT22;8136;53.172;8.256;2023-04-07T14:55:09;31.40;50.10
16064;DHT22;8136;53.172;8.256;2023-04-07T14:57:37;31.60;51.40
16064;DHT22;8136;53.172;8.256;2023-04-07T15:00:05;31.80;50.60
16064;DHT22;8136;53.172;8.256;2023-04-07T15:02:33;31.90;50.70
16064;DHT22;8136;53.172;8.256;2023-04-07T15:05:01;31.80;49.90
16064;DHT22;8136;53.172;8.256;2023-04-07T15:07:28;31.90;50.10
16064;DHT22;8136;53.172;8.256;2023-04-07T15:09:54;31.80;49.50
16064;DHT22;8136;53.172;8.256;2023-04-07T15:12:21;31.60;50.10
16064;DHT22;8136;53.172;8.256;2023-04-07T15:14:51;31.90;49.10
16064;DHT22;8136;53.172;8.256;2023-04-07T15:17:17;32.10;49.20
16064;DHT22;8136;53.172;8.256;2023-04-07T15:19:46;32.10;48.60
16064;DHT22;8136;53.172;8.256;2023-04-07T15:22:12;32.00;48.30
16064;DHT22;8136;53.172;8.256;2023-04-07T15:24:39;32.10;49.00
16064;DHT22;8136;53.172;8.256;2023-04-07T15:27:07;32.10;48.60
16064;DHT22;8136;53.172;8.256;2023-04-07T15:29:35;32.10;48.40
16064;DHT22;8136;53.172;8.256;2023-04-07T15:32:04;32.10;49.00
16064;DHT22;8136;53.172;8.256;2023-04-07T15:34:31;32.30;48.70
16064;DHT22;8136;53.172;8.256;2023-04-07T15:36:58;32.10;46.80
16064;DHT22;8136;53.172;8.256;2023-04-07T15:39:25;31.40;48.10
16064;DHT22;8136;53.172;8.256;2023-04-07T15:41:52;31.50;48.10
16064;DHT22;8136;53.172;8.256;2023-04-07T15:44:18;31.30;47.30
16064;DHT22;8136;53.172;8.256;2023-04-07T15:46:45;31.30;47.60
16064;DHT22;8136;53.172;8.256;2023-04-07T15:49:13;31.40;48.10
16064;DHT22;8136;53.172;8.256;2023-04-07T15:51:44;31.60;47.90
16064;DHT22;8136;53.172;8.256;2023-04-07T15:54:11;31.80;47.60
16064;DHT22;8136;53.172;8.256;2023-04-07T15:56:38;31.80;47.20
16064;DHT22;8136;53.172;8.256;2023-04-07T15:59:04;31.90;47.30
16064;DHT22;8136;53.172;8.256;2023-04-07T16:01:31;32.00;47.30
16064;DHT22;8136;53.172;8.256;2023-04-07T16:03:58;31.80;47.00
16064;DHT22;8136;53.172;8.256;2023-04-07T16:06:26;31.80;46.30
16064;DHT22;8136;53.172;8.256;2023-04-07T16:08:53;31.90;46.70
16064;DHT22;8136;53.172;8.256;2023-04-07T16:11:20;31.80;46.50
16064;DHT22;8136;53.172;8.256;2023-04-07T16:13:47;31.60;46.30
16064;DHT22;8136;53.172;8.256;2023-04-07T16:16:14;31.30;46.20
16064;DHT22;8136;53.172;8.256;2023-04-07T16:18:41;31.30;47.00
16064;DHT22;8136;53.172;8.256;2023-04-07T16:21:07;31.40;46.50
16064;DHT22;8136;53.172;8.256;2023-04-07T16:23:35;31.20;46.10
16064;DHT22;8136;53.172;8.256;2023-04-07T16:26:02;31.10;47.00
16064;DHT22;8136;53.172;8.256;2023-04-07T16:28:29;30.80;46.40
16064;DHT22;8136;53.172;8.256;2023-04-07T16:30:56;30.50;45.90
16064;DHT22;8136;53.172;8.256;2023-04-07T16:33:23;29.90;45.90
16064;DHT22;8136;53.172;8.256;2023-04-07T16:35:52;29.20;46.70
16064;DHT22;8136;53.172;8.256;2023-04-07T16:38:19;28.50;47.70
16064;DHT22;8136;53.172;8.256;2023-04-07T16:40:48;27.70;47.40
16064;DHT22;8136;53.172;8.256;2023-04-07T16:43:15;26.90;48.00
16064;DHT22;8136;53.172;8.256;2023-04-07T16:45:48;26.60;48.80
16064;DHT22;8136;53.172;8.256;2023-04-07T16:48:15;26.50;49.70
16064;DHT22;8136;53.172;8.256;2023-04-07T16:50:43;26.40;48.70
16064;DHT22;8136;53.172;8.256;2023-04-07T16:53:10;26.10;48.70
16064;DHT22;8136;53.172;8.256;2023-04-07T16:55:37;25.60;48.80
16064;DHT22;8136;53.172;8.256;2023-04-07T16:58:05;25.00;49.20
16064;DHT22;8136;53.172;8.256;2023-04-07T17:00:32;24.20;50.50
16064;DHT22;8136;53.172;8.256;2023-04-07T17:02:59;23.80;51.50
16064;DHT22;8136;53.172;8.256;2023-04-07T17:05:26;23.50;52.10
16064;DHT22;8136;53.172;8.256;2023-04-07T17:07:52;23.10;53.30
16064;DHT22;8136;53.172;8.256;2023-04-07T17:10:19;22.80;53.60
16064;DHT22;8136;53.172;8.256;2023-04-07T17:12:46;22.40;53.70
16064;DHT22;8136;53.172;8.256;2023-04-07T17:15:19;21.90;54.40
16064;DHT22;8136;53.172;8.256;2023-04-07T17:17:46;21.50;55.00
16064;DHT22;8136;53.172;8.256;2023-04-07T17:20:13;20.90;56.00
16064;DHT22;8136;53.172;8.256;2023-04-07T17:22:42;20.60;57.10
16064;DHT22;8136;53.172;8.256;2023-04-07T17:25:09;20.20;57.80
16064;DHT22;8136;53.172;8.256;2023-04-07T17:27:36;20.00;58.40
16064;DHT22;8136;53.172;8.256;2023-04-07T17:30:03;19.60;58.40
16064;DHT22;8136;53.172;8.256;2023-04-07T17:32:33;19.30;59.00
16064;DHT22;8136;53.172;8.256;2023-04-07T17:34:59;18.90;60.10
16064;DHT22;8136;53.172;8.256;2023-04-07T17:37:26;18.50;61.30
16064;DHT22;8136;53.172;8.256;2023-04-07T17:39:53;18.20;62.60
16064;DHT22;8136;53.172;8.256;2023-04-07T17:42:20;17.90;64.30
16064;DHT22;8136;53.172;8.256;2023-04-07T17:44:50;17.70;66.90
16064;DHT22;8136;53.172;8.256;2023-04-07T17:47:17;17.30;67.20
16064;DHT22;8136;53.172;8.256;2023-04-07T18:15:33;15.00;75.50
16064;DHT22;8136;53.172;8.256;2023-04-07T18:18:00;14.80;76.00
16064;DHT22;8136;53.172;8.256;2023-04-07T18:20:27;14.70;76.70
16064;DHT22;8136;53.172;8.256;2023-04-07T18:22:53;14.50;77.10
16064;DHT22;8136;53.172;8.256;2023-04-07T18:25:21;14.30;77.90
16064;DHT22;8136;53.172;8.256;2023-04-07T18:27:48;14.10;78.40
16064;DHT22;8136;53.172;8.256;2023-04-07T18:30:15;14.10;79.30
16064;DHT22;8136;53.172;8.256;2023-04-07T18:32:44;13.90;79.80
16064;DHT22;8136;53.172;8.256;2023-04-07T18:35:11;13.90;80.10
16064;DHT22;8136;53.172;8.256;2023-04-07T18:37:38;13.70;80.00
16064;DHT22;8136;53.172;8.256;2023-04-07T18:40:05;13.70;80.60